createdAt,value
2023-05-08T00:02:17.533Z,101075.88
2023-05-08T00:04:45.983Z,101071.81
2023-05-08T00:07:13.789Z,101065.66
2023-05-08T00:09:42.923Z,101072.88
2023-05-08T00:12:11.316Z,101062.63
2023-05-08T00:14:39.138Z,101071.75
2023-05-08T00:17:06.965Z,101078.16
2023-05-08T00:19:35.359Z,101078.63
2023-05-08T00:22:03.116Z,101073.75
2023-05-08T00:24:30.909Z,101072.94
2023-05-08T00:27:00.105Z,101069.72
2023-05-08T00:29:27.854Z,101071.81
2023-05-08T00:31:55.729Z,101073.13
2023-05-08T00:34:24.124Z,101069.88
2023-05-08T00:36:51.898Z,101070.34
2023-05-08T00:39:19.921Z,101068.72
2023-05-08T00:41:48.201Z,101077.00
2023-05-08T00:44:17.623Z,101070.81
2023-05-08T00:46:46.621Z,101072.13
2023-05-08T00:49:16.210Z,101065.97
2023-05-08T00:51:46.220Z,101060.59
2023-05-08T00:54:14.723Z,101068.06
2023-05-08T00:56:42.981Z,101071.81
2023-05-08T00:59:14.551Z,101068.88
2023-05-08T01:01:45.418Z,101069.69
2023-05-08T01:04:13.237Z,101067.50
2023-05-08T01:06:41.112Z,101072.88
2023-05-08T01:12:08.579Z,101076.69
2023-05-08T01:14:46.442Z,101077.50
2023-05-08T01:17:24.230Z,101077.50
2023-05-08T01:20:06.336Z,101087.41
2023-05-08T01:23:06.505Z,101087.41
2023-05-08T01:26:12.157Z,101087.97
2023-05-08T01:29:14.367Z,101082.88
2023-05-08T01:31:56.020Z,101091.72
2023-05-08T01:34:32.352Z,101090.09
2023-05-08T01:37:04.487Z,101094.88
2023-05-08T01:39:40.160Z,101091.97
2023-05-08T01:42:15.659Z,101092.44
2023-05-08T01:44:48.899Z,101093.25
2023-05-08T01:47:18.756Z,101088.13
2023-05-08T01:49:51.479Z,101089.19
2023-05-08T01:52:24.214Z,101088.59
2023-05-08T01:55:00.051Z,101087.25
2023-05-08T01:57:30.655Z,101088.53
2023-05-08T02:00:01.969Z,101080.72
2023-05-08T02:02:33.336Z,101089.84
2023-05-08T02:05:05.896Z,101094.38
2023-05-08T02:07:38.443Z,101091.91
2023-05-08T02:10:09.252Z,101097.28
2023-05-08T02:12:40.519Z,101091.91
2023-05-08T02:15:10.768Z,101092.72
2023-05-08T02:17:41.887Z,101096.47
2023-05-08T02:20:15.160Z,101098.09
2023-05-08T02:22:46.189Z,101099.16
2023-05-08T02:25:16.273Z,101104.25
2023-05-08T02:27:47.419Z,101101.03
2023-05-08T02:30:16.459Z,101097.28
2023-05-08T02:32:45.289Z,101101.03
2023-05-08T02:35:18.575Z,101099.75
2023-05-08T02:37:48.938Z,101098.91
2023-05-08T02:40:19.140Z,101098.09
2023-05-08T02:42:47.749Z,101099.75
2023-05-08T02:45:15.794Z,101090.84
2023-05-08T02:47:49.153Z,101096.81
2023-05-08T02:50:23.112Z,101089.34
2023-05-08T02:52:54.118Z,101086.66
2023-05-08T02:55:34.172Z,101084.56
2023-05-08T02:58:12.481Z,101084.31
2023-05-08T03:00:46.408Z,101082.44
2023-05-08T03:03:21.290Z,101085.13
2023-05-08T03:05:53.609Z,101088.84
2023-05-08T03:08:27.575Z,101089.66
2023-05-08T03:10:58.411Z,101095.28
2023-05-08T03:13:29.187Z,101081.19
2023-05-08T03:16:00.013Z,101095.50
2023-05-08T03:18:33.906Z,101091.78
2023-05-08T03:21:04.603Z,101098.19
2023-05-08T03:23:35.635Z,101084.94
2023-05-08T03:26:05.807Z,101096.81
2023-05-08T03:28:34.030Z,101098.91
2023-05-08T03:31:03.275Z,101097.28
2023-05-08T03:33:33.067Z,101102.63
2023-05-08T03:36:01.000Z,101104.75
2023-05-08T03:38:30.924Z,101101.28
2023-05-08T03:41:00.709Z,101090.47
2023-05-08T03:43:30.889Z,101098.25
2023-05-08T03:45:59.728Z,101097.69
2023-05-08T03:48:28.542Z,101098.72
2023-05-08T03:50:57.698Z,101090.94
2023-05-08T03:53:25.867Z,101093.59
2023-05-08T03:55:55.047Z,101090.34
2023-05-08T03:58:29.972Z,101091.19
2023-05-08T04:01:05.852Z,101093.72
2023-05-08T04:03:53.972Z,101096.31
2023-05-08T04:06:35.736Z,101098.19
2023-05-08T04:09:18.774Z,101099.00
2023-05-08T04:12:03.283Z,101096.78
2023-05-08T04:14:36.441Z,101098.31
2023-05-08T04:17:07.845Z,101110.34
2023-05-08T04:19:40.863Z,101108.22
2023-05-08T04:22:09.583Z,101110.34
2023-05-08T04:24:43.753Z,101114.38
2023-05-08T04:27:14.023Z,101119.75
2023-05-08T04:29:41.946Z,101107.41
2023-05-08T04:32:12.094Z,101113.56
2023-05-08T04:34:39.957Z,101111.47
2023-05-08T04:37:08.438Z,101117.06
2023-05-08T04:39:36.827Z,101107.41
2023-05-08T04:42:05.000Z,101114.38
2023-05-08T04:44:34.147Z,101120.00
2023-05-08T04:47:02.441Z,101119.41
2023-05-08T04:49:30.209Z,101110.78
2023-05-08T04:51:58.035Z,101108.38
2023-05-08T04:54:26.335Z,101116.66
2023-05-08T04:56:54.145Z,101118.72
2023-05-08T04:59:21.917Z,101124.34
2023-05-08T05:01:51.698Z,101130.25
2023-05-08T05:04:19.482Z,101134.47
2023-05-08T05:06:47.240Z,101139.84
2023-05-08T05:09:15.531Z,101123.41
2023-05-08T05:11:43.398Z,101142.16
2023-05-08T05:14:11.187Z,101142.38
2023-05-08T05:16:39.709Z,101147.75
2023-05-08T05:19:08.904Z,101151.00
2023-05-08T05:21:37.919Z,101157.19
2023-05-08T05:24:06.558Z,101151.56
2023-05-08T05:26:36.366Z,101162.06
2023-05-08T05:29:04.674Z,101171.47
2023-05-08T05:31:33.134Z,101173.59
2023-05-08T05:34:01.012Z,101176.28
2023-05-08T05:36:30.767Z,101173.09
2023-05-08T05:38:58.773Z,101176.03
2023-05-08T05:41:26.646Z,101172.78
2023-05-08T05:43:54.427Z,101169.88
2023-05-08T05:46:26.712Z,101172.28
2023-05-08T05:48:54.607Z,101177.66
2023-05-08T05:51:22.389Z,101182.78
2023-05-08T05:53:52.040Z,101178.56
2023-05-08T05:56:19.610Z,101184.03
2023-05-08T05:58:47.404Z,101183.56
2023-05-08T06:01:15.850Z,101182.75
2023-05-08T06:03:44.011Z,101191.34
2023-05-08T06:06:12.484Z,101186.81
2023-05-08T06:08:40.913Z,101192.16
2023-05-08T06:11:10.041Z,101193.56
2023-05-08T06:13:40.086Z,101197.06
2023-05-08T06:16:09.392Z,101198.44
2023-05-08T06:18:37.152Z,101197.41
2023-05-08T06:21:05.272Z,101194.72
2023-05-08T06:23:33.678Z,101193.66
2023-05-08T06:26:01.465Z,101189.94
2023-05-08T06:28:30.684Z,101192.38
2023-05-08T06:30:59.034Z,101193.22
2023-05-08T06:33:27.171Z,101184.97
2023-05-08T06:35:55.096Z,101172.00
2023-05-08T06:38:23.486Z,101185.38
2023-05-08T06:40:51.390Z,101181.09
2023-05-08T06:43:19.200Z,101177.84
2023-05-08T06:45:49.017Z,101181.34
2023-05-08T06:48:17.047Z,101187.50
2023-05-08T06:50:45.224Z,101189.03
2023-05-08T06:53:13.714Z,101192.28
2023-05-08T06:55:44.150Z,101190.41
2023-05-08T06:58:12.203Z,101197.06
2023-05-08T07:00:41.035Z,101190.91
2023-05-08T07:03:10.369Z,101198.69
2023-05-08T07:05:38.189Z,101190.91
2023-05-08T07:08:06.514Z,101199.75
2023-05-08T07:10:34.269Z,101197.06
2023-05-08T07:13:02.089Z,101197.06
2023-05-08T07:15:33.059Z,101201.97
2023-05-08T07:18:00.889Z,101200.31
2023-05-08T07:20:30.387Z,101199.50
2023-05-08T07:22:58.711Z,101202.41
2023-05-08T07:25:26.455Z,101201.59
2023-05-08T07:27:54.269Z,101204.03
2023-05-08T07:30:22.695Z,101205.66
2023-05-08T07:32:50.611Z,101211.03
2023-05-08T07:35:19.629Z,101209.41
2023-05-08T07:37:49.145Z,101208.34
2023-05-08T07:40:16.694Z,101204.97
2023-05-08T07:42:45.738Z,101199.38
2023-05-08T07:45:15.689Z,101203.72
2023-05-08T07:47:53.634Z,101202.66
2023-05-08T07:50:24.808Z,101201.03
2023-05-08T07:52:54.137Z,101212.78
2023-05-08T07:55:22.543Z,101208.44
2023-05-08T07:57:50.946Z,101207.41
2023-05-08T08:00:19.186Z,101209.28
2023-05-08T08:02:47.204Z,101212.56
2023-05-08T08:05:15.879Z,101213.38
2023-05-08T08:07:44.077Z,101217.91
2023-05-08T08:10:13.496Z,101222.81
2023-05-08T08:12:41.956Z,101220.69
2023-05-08T08:15:10.688Z,101216.16
2023-05-08T08:17:38.732Z,101209.53
2023-05-08T08:20:08.316Z,101213.56
2023-05-08T08:22:36.595Z,101209.72
2023-05-08T08:25:04.536Z,101212.72
2023-05-08T08:27:34.522Z,101214.94
2023-05-08T08:30:15.846Z,101220.84
2023-05-08T08:32:45.949Z,101212.34
2023-05-08T08:35:14.564Z,101214.56
2023-05-08T08:37:43.021Z,101213.50
2023-05-08T08:40:11.810Z,101221.03
2023-05-08T08:42:40.990Z,101212.53
2023-05-08T08:45:10.196Z,101214.16
2023-05-08T08:47:39.864Z,101213.25
2023-05-08T08:50:11.990Z,101215.56
2023-05-08T08:52:44.910Z,101227.66
2023-05-08T08:55:16.450Z,101223.91
2023-05-08T08:57:53.569Z,101227.75
2023-05-08T09:00:23.324Z,101225.06
2023-05-08T09:02:51.752Z,101222.97
2023-05-08T09:05:20.377Z,101219.22
2023-05-08T09:07:48.751Z,101223.28
2023-05-08T09:10:16.733Z,101224.09
2023-05-08T09:12:46.212Z,101221.19
2023-05-08T09:15:14.257Z,101221.03
2023-05-08T09:17:42.376Z,101213.53
2023-05-08T09:20:12.549Z,101223.00
2023-05-08T09:22:41.902Z,101207.47
2023-05-08T09:25:10.681Z,101207.25
2023-05-08T09:27:38.632Z,101214.56
2023-05-08T09:30:09.291Z,101213.81
2023-05-08T09:32:39.420Z,101213.59
2023-05-08T09:35:09.409Z,101219.28
2023-05-08T09:37:40.573Z,101216.59
2023-05-08T09:40:15.976Z,101211.81
2023-05-08T09:42:44.543Z,101210.50
2023-05-08T09:45:28.914Z,101211.19
2023-05-08T09:47:56.846Z,101203.75
2023-05-08T09:50:25.336Z,101201.22
2023-05-08T09:52:53.244Z,101207.81
2023-05-08T09:55:21.755Z,101215.69
2023-05-08T09:57:57.876Z,101199.09
2023-05-08T10:00:29.035Z,101204.06
2023-05-08T10:02:59.509Z,101213.22
2023-05-08T10:05:30.400Z,101218.13
2023-05-08T10:07:58.462Z,101216.56
2023-05-08T10:10:27.815Z,101208.56
2023-05-08T10:12:58.021Z,101213.19
2023-05-08T10:15:30.881Z,101222.19
2023-05-08T10:18:04.759Z,101211.50
2023-05-08T10:20:34.192Z,101214.19
2023-05-08T10:23:03.958Z,101218.00
2023-05-08T10:25:34.469Z,101211.56
2023-05-08T10:28:11.106Z,101214.31
2023-05-08T10:30:44.813Z,101211.34
2023-05-08T10:33:17.982Z,101208.44
2023-05-08T10:35:46.915Z,101207.59
2023-05-08T10:38:17.575Z,101202.00
2023-05-08T10:40:46.120Z,101202.56
2023-05-08T10:43:14.335Z,101207.91
2023-05-08T10:45:44.293Z,101203.06
2023-05-08T10:48:25.379Z,101197.19
2023-05-08T10:51:01.969Z,101193.41
2023-05-08T10:53:36.544Z,101195.06
2023-05-08T10:56:04.639Z,101197.22
2023-05-08T10:58:33.504Z,101190.56
2023-05-08T11:01:16.979Z,101191.91
2023-05-08T11:03:46.830Z,101190.34
2023-05-08T11:06:15.761Z,101181.28
2023-05-08T11:08:50.022Z,101190.22
2023-05-08T11:11:25.235Z,101186.25
2023-05-08T11:13:57.115Z,101182.00
2023-05-08T11:17:03.728Z,101178.31
2023-05-08T11:19:33.444Z,101180.50
2023-05-08T11:22:27.117Z,101174.09
2023-05-08T11:25:03.765Z,101169.00
2023-05-08T11:27:37.308Z,101170.72
2023-05-08T11:30:25.512Z,101165.06
2023-05-08T11:33:18.468Z,101168.88
2023-05-08T11:35:58.326Z,101157.25
2023-05-08T11:38:28.797Z,101171.03
2023-05-08T11:40:59.436Z,101171.03
2023-05-08T11:44:09.474Z,101165.66
2023-05-08T11:46:42.989Z,101171.56
2023-05-08T11:49:16.509Z,101169.94
2023-05-08T11:51:47.860Z,101166.69
2023-05-08T11:54:17.397Z,101163.94
2023-05-08T11:56:47.846Z,101154.81
2023-05-08T11:59:16.855Z,101155.38
2023-05-08T12:01:53.566Z,101165.06
2023-05-08T12:04:24.997Z,101154.31
2023-05-08T12:06:58.767Z,101153.81
2023-05-08T12:09:27.426Z,101149.78
2023-05-08T12:11:58.956Z,101150.91
2023-05-08T12:14:26.899Z,101147.94
2023-05-08T12:16:55.232Z,101140.16
2023-05-08T12:19:23.037Z,101129.44
2023-05-08T12:21:51.400Z,101132.97
2023-05-08T12:24:23.766Z,101137.31
2023-05-08T12:26:56.647Z,101131.47
2023-05-08T12:29:25.173Z,101129.88
2023-05-08T12:31:53.743Z,101129.91
2023-05-08T12:34:23.911Z,101117.28
2023-05-08T12:37:03.350Z,101122.97
2023-05-08T12:39:35.659Z,101128.91
2023-05-08T12:42:04.200Z,101125.19
2023-05-08T12:44:32.284Z,101119.59
2023-05-08T12:47:00.156Z,101118.50
2023-05-08T12:49:29.579Z,101111.22
2023-05-08T12:52:15.200Z,101108.00
2023-05-08T12:54:49.783Z,101103.16
2023-05-08T12:57:19.561Z,101104.75
2023-05-08T12:59:47.975Z,101109.63
2023-05-08T13:02:18.987Z,101110.97
2023-05-08T13:04:47.339Z,101103.69
2023-05-08T13:07:15.549Z,101102.06
2023-05-08T13:09:59.766Z,101102.38
2023-05-08T13:12:27.619Z,101090.78
2023-05-08T13:14:55.438Z,101097.50
2023-05-08T13:17:23.839Z,101089.16
2023-05-08T13:22:22.907Z,101095.41
2023-05-08T13:24:51.232Z,101099.44
2023-05-08T13:27:20.434Z,101092.44
2023-05-08T13:29:48.218Z,101103.75
2023-05-08T13:32:16.588Z,101089.75
2023-05-08T13:34:50.720Z,101090.84
2023-05-08T13:37:20.000Z,101094.59
2023-05-08T13:39:47.823Z,101095.97
2023-05-08T13:42:15.585Z,101087.06
2023-05-08T13:44:45.154Z,101095.69
2023-05-08T13:47:13.024Z,101093.00
2023-05-08T13:49:40.812Z,101089.50
2023-05-08T13:52:08.627Z,101093.00
2023-05-08T13:54:37.708Z,101089.75
2023-05-08T13:57:05.977Z,101077.38
2023-05-08T13:59:34.161Z,101073.31
2023-05-08T14:02:03.662Z,101080.59
2023-05-08T14:04:31.248Z,101084.63
2023-05-08T14:06:59.298Z,101076.28
2023-05-08T14:09:27.143Z,101084.88
2023-05-08T14:11:55.063Z,101087.56
2023-05-08T14:14:23.061Z,101085.69
2023-05-08T14:19:20.416Z,101085.66
2023-05-08T14:21:48.607Z,101076.53
2023-05-08T14:24:16.495Z,101075.19
2023-05-08T14:26:45.015Z,101081.66
2023-05-08T14:29:13.366Z,101075.19
2023-05-08T14:31:41.412Z,101074.91
2023-05-08T14:34:09.351Z,101071.41
2023-05-08T14:36:38.876Z,101073.59
2023-05-08T14:39:06.624Z,101072.78
2023-05-08T14:41:34.472Z,101070.91
2023-05-08T14:44:02.884Z,101069.81
2023-05-08T14:46:31.266Z,101070.34
2023-05-08T14:48:59.111Z,101072.22
2023-05-08T14:51:27.023Z,101067.63
2023-05-08T14:53:56.560Z,101072.50
2023-05-08T14:56:24.909Z,101065.47
2023-05-08T14:58:55.688Z,101070.06
2023-05-08T15:06:22.871Z,101066.00
2023-05-08T15:08:51.791Z,101058.47
2023-05-08T15:13:56.077Z,101069.69
2023-05-08T15:16:24.107Z,101075.06
2023-05-08T15:18:52.054Z,101079.91
2023-05-08T15:21:21.573Z,101075.56
2023-05-08T15:23:49.828Z,101066.72
2023-05-08T15:26:17.651Z,101061.88
2023-05-08T15:28:46.770Z,101064.28
2023-05-08T15:31:15.422Z,101072.84
2023-05-08T15:33:44.930Z,101072.59
2023-05-08T15:36:13.709Z,101067.44
2023-05-08T15:38:42.783Z,101068.78
2023-05-08T15:41:14.758Z,101072.28
2023-05-08T15:43:45.643Z,101067.16
2023-05-08T15:46:14.865Z,101078.72
2023-05-08T15:48:42.740Z,101078.13
2023-05-08T15:51:11.020Z,101083.53
2023-05-08T15:53:38.862Z,101084.88
2023-05-08T15:56:06.954Z,101093.72
2023-05-08T15:58:36.805Z,101102.88
2023-05-08T16:01:05.387Z,101093.66
2023-05-08T16:03:34.747Z,101099.03
2023-05-08T16:06:02.517Z,101093.66
2023-05-08T16:08:30.815Z,101096.59
2023-05-08T16:10:58.597Z,101098.72
2023-05-08T16:13:27.117Z,101105.69
2023-05-08T16:15:55.253Z,101104.34
2023-05-08T16:18:23.053Z,101105.38
2023-05-08T16:20:52.796Z,101103.38
2023-05-08T16:23:20.569Z,101097.19
2023-05-08T16:25:48.373Z,101100.81
2023-05-08T16:28:16.207Z,101097.13
2023-05-08T16:30:44.026Z,101094.44
2023-05-08T16:33:12.538Z,101090.09
2023-05-08T16:35:41.426Z,101078.78
2023-05-08T16:38:10.952Z,101080.41
2023-05-08T16:40:38.495Z,101069.16
2023-05-08T16:43:08.822Z,101076.94
2023-05-08T16:45:36.753Z,101077.44
2023-05-08T16:48:05.180Z,101065.88
2023-05-08T16:50:33.636Z,101075.03
2023-05-08T16:53:02.146Z,101073.41
2023-05-08T16:55:31.304Z,101062.63
2023-05-08T16:57:59.642Z,101060.72
2023-05-08T17:00:27.583Z,101054.00
2023-05-08T17:02:55.423Z,101046.97
2023-05-08T17:05:24.177Z,101051.31
2023-05-08T17:07:52.035Z,101042.69
2023-05-08T17:10:19.820Z,101028.69
2023-05-08T17:12:50.882Z,101048.56
2023-05-08T17:15:19.560Z,101045.31
2023-05-08T17:17:47.686Z,101045.81
2023-05-08T17:20:16.625Z,101055.78
2023-05-08T17:22:44.466Z,101062.22
2023-05-08T17:25:12.257Z,101056.03
2023-05-08T17:27:40.472Z,101057.91
2023-05-08T17:30:12.190Z,101048.25
2023-05-08T17:32:40.384Z,101049.00
2023-05-08T17:35:10.166Z,101045.47
2023-05-08T17:37:38.043Z,101045.47
2023-05-08T17:40:06.806Z,101030.63
2023-05-08T17:42:35.958Z,101036.00
2023-05-08T17:45:04.953Z,101033.59
2023-05-08T17:47:34.147Z,101034.41
2023-05-08T17:50:02.552Z,101030.09
2023-05-08T17:52:30.352Z,101029.03
2023-05-08T17:54:58.334Z,101026.84
2023-05-08T17:57:26.482Z,101032.22
2023-05-08T17:59:54.280Z,101030.84
2023-05-08T18:02:22.075Z,101018.22
2023-05-08T18:04:51.747Z,101011.78
2023-05-08T18:07:19.611Z,101013.41
2023-05-08T18:09:47.374Z,101011.28
2023-05-08T18:12:15.573Z,101003.22
2023-05-08T18:14:44.422Z,101008.31
2023-05-08T18:17:15.399Z,101010.75
2023-05-08T18:19:43.736Z,101031.44
2023-05-08T18:22:12.912Z,101029.56
2023-05-08T18:24:40.724Z,101036.00
2023-05-08T18:27:09.208Z,101038.16
2023-05-08T18:29:36.974Z,101037.59
2023-05-08T18:32:05.167Z,101031.66
2023-05-08T18:34:32.983Z,101043.50
2023-05-08T18:37:00.762Z,101046.13
2023-05-08T18:39:29.929Z,101050.94
2023-05-08T18:41:58.234Z,101041.50
2023-05-08T18:44:26.045Z,101044.97
2023-05-08T18:46:53.797Z,101036.84
2023-05-08T18:49:22.193Z,101042.72
2023-05-08T18:51:49.982Z,101049.66
2023-05-08T18:54:17.757Z,101048.53
2023-05-08T18:56:47.205Z,101038.00
2023-05-08T18:59:14.977Z,101035.84
2023-05-08T19:01:42.751Z,101034.47
2023-05-08T19:04:10.676Z,101035.00
2023-05-08T19:06:38.585Z,101033.88
2023-05-08T19:09:06.412Z,101022.31
2023-05-08T19:11:34.543Z,101026.56
2023-05-08T19:14:04.016Z,101028.19
2023-05-08T19:16:31.956Z,101033.00
2023-05-08T19:19:00.034Z,101036.44
2023-05-08T19:21:27.843Z,101039.94
2023-05-08T19:23:55.635Z,101035.03
2023-05-08T19:26:23.713Z,101032.88
2023-05-08T19:28:51.469Z,101032.56
2023-05-08T19:31:20.730Z,101040.63
2023-05-08T19:33:49.900Z,101041.44
2023-05-08T19:36:18.348Z,101033.63
2023-05-08T19:38:46.129Z,101039.00
2023-05-08T19:41:14.118Z,101040.63
2023-05-08T19:43:41.888Z,101046.00
2023-05-08T19:46:09.692Z,101039.00
2023-05-08T19:48:40.052Z,101054.03
2023-05-08T19:51:08.068Z,101064.22
2023-05-08T19:53:35.923Z,101065.03
2023-05-08T19:56:03.978Z,101070.09
2023-05-08T19:58:31.773Z,101057.72
2023-05-08T20:00:59.761Z,101061.22
2023-05-08T20:03:28.106Z,101071.97
2023-05-08T20:05:57.376Z,101062.03
2023-05-08T20:08:25.285Z,101056.13
2023-05-08T20:10:53.095Z,101062.03
2023-05-08T20:13:21.087Z,101063.66
2023-05-08T20:15:49.281Z,101062.59
2023-05-08T20:18:17.127Z,101058.88
2023-05-08T20:20:46.120Z,101055.38
2023-05-08T20:23:15.256Z,101054.31
2023-05-08T20:25:46.167Z,101039.25
2023-05-08T20:28:13.928Z,101050.00
2023-05-08T20:30:41.746Z,101047.31
2023-05-08T20:33:09.641Z,101044.06
2023-05-08T20:35:37.447Z,101051.28
2023-05-08T20:38:05.451Z,101045.38
2023-05-08T20:40:35.392Z,101047.00
2023-05-08T20:43:03.351Z,101049.09
2023-05-08T20:45:31.283Z,101045.88
2023-05-08T20:47:59.827Z,101028.13
2023-05-08T20:50:27.724Z,101024.88
2023-05-08T20:52:55.896Z,101028.63
2023-05-08T20:55:24.354Z,101031.56
2023-05-08T20:57:53.598Z,101016.28
2023-05-08T21:00:22.472Z,101015.66
2023-05-08T21:02:50.481Z,101020.50
2023-05-08T21:05:18.974Z,101018.09
2023-05-08T21:07:46.752Z,101017.28
2023-05-08T21:10:16.717Z,101010.78
2023-05-08T21:12:45.531Z,101003.53
2023-05-08T21:15:15.128Z,100998.44
2023-05-08T21:17:43.408Z,100995.16
2023-05-08T21:20:12.543Z,100993.53
2023-05-08T21:22:40.639Z,100998.09
2023-05-08T21:25:12.582Z,100991.38
2023-05-08T21:27:42.539Z,100997.78
2023-05-08T21:30:15.642Z,100983.81
2023-05-08T21:32:45.840Z,100980.06
2023-05-08T21:35:14.411Z,100984.06
2023-05-08T21:37:42.645Z,100982.69
2023-05-08T21:40:10.842Z,100980.25
2023-05-08T21:42:40.292Z,100981.06
2023-05-08T21:45:08.873Z,100982.03
2023-05-08T21:47:36.657Z,100975.03
2023-05-08T21:50:07.166Z,100975.03
2023-05-08T21:52:35.845Z,100966.69
2023-05-08T21:55:08.358Z,100967.75
2023-05-08T21:57:36.630Z,100965.28
2023-05-08T22:00:05.458Z,100954.03
2023-05-08T22:02:33.340Z,100950.53
2023-05-08T22:05:01.550Z,100935.66
2023-05-08T22:07:30.821Z,100936.78
2023-05-08T22:09:58.602Z,100934.38
2023-05-08T22:12:26.715Z,100931.91
2023-05-08T22:14:54.484Z,100932.97
2023-05-08T22:17:22.204Z,100926.00
2023-05-08T22:19:49.962Z,100930.81
2023-05-08T22:22:17.693Z,100919.50
2023-05-08T22:24:46.813Z,100920.31
2023-05-08T22:27:14.782Z,100918.97
2023-05-08T22:29:42.485Z,100909.28
2023-05-08T22:32:10.367Z,100912.19
2023-05-08T22:34:38.281Z,100909.78
2023-05-08T22:37:06.222Z,100909.78
2023-05-08T22:39:34.021Z,100903.03
2023-05-08T22:42:03.664Z,100905.72
2023-05-08T22:44:31.499Z,100897.19
2023-05-08T22:46:59.509Z,100890.47
2023-05-08T22:49:27.649Z,100885.59
2023-05-08T22:51:55.841Z,100888.75
2023-05-08T22:54:23.686Z,100882.84
2023-05-08T22:56:51.736Z,100885.19
2023-05-08T22:59:20.877Z,100870.16
2023-05-08T23:01:48.625Z,100881.16
2023-05-08T23:04:16.671Z,100872.53
2023-05-08T23:06:44.423Z,100873.59
2023-05-08T23:09:12.436Z,100870.38
2023-05-08T23:11:40.823Z,100873.28
2023-05-08T23:14:08.589Z,100870.84
2023-05-08T23:16:37.907Z,100874.59
2023-05-08T23:19:07.591Z,100864.34
2023-05-08T23:21:35.375Z,100865.41
2023-05-08T23:24:03.173Z,100859.25
2023-05-08T23:26:31.293Z,100856.00
2023-05-08T23:28:59.106Z,100857.06
2023-05-08T23:31:27.046Z,100860.00
2023-05-08T23:33:56.537Z,100854.38
2023-05-08T23:36:24.617Z,100850.34
2023-05-08T23:38:52.593Z,100846.84
2023-05-08T23:41:20.589Z,100849.75
2023-05-08T23:43:48.659Z,100842.78
2023-05-08T23:46:16.740Z,100841.16
2023-05-08T23:48:45.155Z,100839.53
2023-05-08T23:51:14.360Z,100829.09
2023-05-08T23:53:42.256Z,100834.66
2023-05-08T23:56:10.980Z,100829.31
2023-05-08T23:58:38.902Z,100832.25
